sensor_id;sensor_type;location;lat;lon;timestamp;temperature;humidity
23335;DHT22;11839;48.598;8.870;2023-07-31T00:00:55;17.80;99.90
23335;DHT22;11839;48.598;8.870;2023-07-31T00:03:22;17.80;99.90
23335;DHT22;11839;48.598;8.870;2023-07-31T00:05:50;17.60;99.90
23335;DHT22;11839;48.598;8.870;2023-07-31T00:08:17;17.50;99.90
23335;DHT22;11839;48.598;8.870;2023-07-31T00:10:43;17.50;99.90
23335;DHT22;11839;48.598;8.870;2023-07-31T00:13:10;17.70;99.90
23335;DHT22;11839;48.598;8.870;2023-07-31T00:15:37;18.00;99.90
23335;DHT22;11839;48.598;8.870;2023-07-31T00:18:04;18.10;99.90
23335;DHT22;11839;48.598;8.870;2023-07-31T00:20:30;17.70;99.90
23335;DHT22;11839;48.598;8.870;2023-07-31T00:22:58;17.70;99.90
23335;DHT22;11839;48.598;8.870;2023-07-31T00:25:25;17.80;99.90
23335;DHT22;11839;48.598;8.870;2023-07-31T00:27:52;17.70;99.90
23335;DHT22;11839;48.598;8.870;2023-07-31T00:30:19;17.80;99.90
23335;DHT22;11839;48.598;8.870;2023-07-31T00:32:45;17.90;99.90
23335;DHT22;11839;48.598;8.870;2023-07-31T00:35:12;18.00;99.90
23335;DHT22;11839;48.598;8.870;2023-07-31T00:37:39;18.00;99.90
23335;DHT22;11839;48.598;8.870;2023-07-31T00:40:08;18.00;99.90
23335;DHT22;11839;48.598;8.870;2023-07-31T00:42:35;18.10;99.90
23335;DHT22;11839;48.598;8.870;2023-07-31T00:45:02;18.00;99.90
23335;DHT22;11839;48.598;8.870;2023-07-31T00:47:29;18.10;99.90
23335;DHT22;11839;48.598;8.870;2023-07-31T00:49:56;18.20;99.90
23335;DHT22;11839;48.598;8.870;2023-07-31T00:52:22;18.10;99.90
23335;DHT22;11839;48.598;8.870;2023-07-31T00:54:49;17.90;99.90
23335;DHT22;11839;48.598;8.870;2023-07-31T00:57:18;18.00;99.90
23335;DHT22;11839;48.598;8.870;2023-07-31T00:59:45;18.10;99.90
23335;DHT22;11839;48.598;8.870;2023-07-31T01:02:12;18.10;99.90
23335;DHT22;11839;48.598;8.870;2023-07-31T01:04:39;17.60;99.90
23335;DHT22;11839;48.598;8.870;2023-07-31T01:07:13;17.60;99.90
23335;DHT22;11839;48.598;8.870;2023-07-31T01:09:44;17.60;99.90
23335;DHT22;11839;48.598;8.870;2023-07-31T01:12:14;17.70;99.90
23335;DHT22;11839;48.598;8.870;2023-07-31T01:14:52;17.70;99.90
23335;DHT22;11839;48.598;8.870;2023-07-31T01:17:28;17.70;99.90
23335;DHT22;11839;48.598;8.870;2023-07-31T01:19:56;17.60;99.90
23335;DHT22;11839;48.598;8.870;2023-07-31T01:22:39;17.50;99.90
23335;DHT22;11839;48.598;8.870;2023-07-31T01:25:18;17.00;99.90
23335;DHT22;11839;48.598;8.870;2023-07-31T01:27:55;16.70;99.90
23335;DHT22;11839;48.598;8.870;2023-07-31T01:30:26;16.60;99.90
23335;DHT22;11839;48.598;8.870;2023-07-31T01:32:54;16.70;99.90
23335;DHT22;11839;48.598;8.870;2023-07-31T01:35:22;16.90;99.90
23335;DHT22;11839;48.598;8.870;2023-07-31T01:37:52;17.10;99.90
23335;DHT22;11839;48.598;8.870;2023-07-31T01:40:19;17.10;99.90
23335;DHT22;11839;48.598;8.870;2023-07-31T01:42:46;17.30;99.90
23335;DHT22;11839;48.598;8.870;2023-07-31T01:45:14;17.30;99.90
23335;DHT22;11839;48.598;8.870;2023-07-31T01:47:41;17.50;99.90
23335;DHT22;11839;48.598;8.870;2023-07-31T01:50:08;17.50;99.90
23335;DHT22;11839;48.598;8.870;2023-07-31T01:52:35;17.20;99.90
23335;DHT22;11839;48.598;8.870;2023-07-31T01:55:03;17.10;99.90
23335;DHT22;11839;48.598;8.870;2023-07-31T01:57:29;17.20;99.90
23335;DHT22;11839;48.598;8.870;2023-07-31T01:59:56;17.00;99.90
23335;DHT22;11839;48.598;8.870;2023-07-31T02:02:24;17.10;99.90
23335;DHT22;11839;48.598;8.870;2023-07-31T02:04:51;17.10;99.90
23335;DHT22;11839;48.598;8.870;2023-07-31T02:07:18;17.10;99.90
23335;DHT22;11839;48.598;8.870;2023-07-31T02:09:45;17.30;99.90
23335;DHT22;11839;48.598;8.870;2023-07-31T02:12:13;17.60;99.90
23335;DHT22;11839;48.598;8.870;2023-07-31T02:14:40;17.60;99.90
23335;DHT22;11839;48.598;8.870;2023-07-31T02:17:07;17.70;99.90
23335;DHT22;11839;48.598;8.870;2023-07-31T02:19:35;17.60;99.90
23335;DHT22;11839;48.598;8.870;2023-07-31T02:22:02;17.60;99.90
23335;DHT22;11839;48.598;8.870;2023-07-31T02:24:29;17.50;99.90
23335;DHT22;11839;48.598;8.870;2023-07-31T02:26:57;17.40;99.90
23335;DHT22;11839;48.598;8.870;2023-07-31T02:29:24;17.80;99.90
23335;DHT22;11839;48.598;8.870;2023-07-31T02:31:51;17.80;99.90
23335;DHT22;11839;48.598;8.870;2023-07-31T02:34:17;17.60;99.90
23335;DHT22;11839;48.598;8.870;2023-07-31T02:36:46;17.60;99.90
23335;DHT22;11839;48.598;8.870;2023-07-31T02:39:12;17.40;99.90
23335;DHT22;11839;48.598;8.870;2023-07-31T02:41:39;17.40;99.90
23335;DHT22;11839;48.598;8.870;2023-07-31T02:44:06;17.10;99.90
23335;DHT22;11839;48.598;8.870;2023-07-31T02:46:33;16.70;99.90
23335;DHT22;11839;48.598;8.870;2023-07-31T02:48:59;16.90;99.90
23335;DHT22;11839;48.598;8.870;2023-07-31T02:51:26;16.80;99.90
23335;DHT22;11839;48.598;8.870;2023-07-31T02:53:54;17.10;99.90
23335;DHT22;11839;48.598;8.870;2023-07-31T02:56:21;17.20;99.90
23335;DHT22;11839;48.598;8.870;2023-07-31T02:58:48;17.40;99.90
23335;DHT22;11839;48.598;8.870;2023-07-31T03:01:15;17.50;99.90
23335;DHT22;11839;48.598;8.870;2023-07-31T03:03:41;17.30;99.90
23335;DHT22;11839;48.598;8.870;2023-07-31T03:06:08;17.20;99.90
23335;DHT22;11839;48.598;8.870;2023-07-31T03:08:35;17.20;99.90
23335;DHT22;11839;48.598;8.870;2023-07-31T03:11:03;17.00;99.90
23335;DHT22;11839;48.598;8.870;2023-07-31T03:13:30;16.90;99.90
23335;DHT22;11839;48.598;8.870;2023-07-31T03:15:56;16.70;99.90
23335;DHT22;11839;48.598;8.870;2023-07-31T03:18:23;16.60;99.90
23335;DHT22;11839;48.598;8.870;2023-07-31T03:20:50;16.70;99.90
23335;DHT22;11839;48.598;8.870;2023-07-31T03:23:17;17.00;99.90
23335;DHT22;11839;48.598;8.870;2023-07-31T03:25:55;17.20;99.90
23335;DHT22;11839;48.598;8.870;2023-07-31T03:28:24;17.30;99.90
23335;DHT22;11839;48.598;8.870;2023-07-31T03:30:51;17.50;99.90
23335;DHT22;11839;48.598;8.870;2023-07-31T03:33:18;17.40;99.90
23335;DHT22;11839;48.598;8.870;2023-07-31T03:35:45;17.40;99.90
23335;DHT22;11839;48.598;8.870;2023-07-31T03:38:11;17.50;99.90
23335;DHT22;11839;48.598;8.870;2023-07-31T03:40:38;17.20;99.90
23335;DHT22;11839;48.598;8.870;2023-07-31T03:43:05;17.20;99.90
23335;DHT22;11839;48.598;8.870;2023-07-31T03:45:33;17.10;99.90
23335;DHT22;11839;48.598;8.870;2023-07-31T03:48:00;17.20;99.90
23335;DHT22;11839;48.598;8.870;2023-07-31T03:50:27;17.00;99.90
23335;DHT22;11839;48.598;8.870;2023-07-31T03:52:54;17.00;99.90
23335;DHT22;11839;48.598;8.870;2023-07-31T03:55:20;17.20;99.90
23335;DHT22;11839;48.598;8.870;2023-07-31T03:57:48;17.20;99.90
23335;DHT22;11839;48.598;8.870;2023-07-31T04:00:15;17.30;99.90
23335;DHT22;11839;48.598;8.870;2023-07-31T04:02:43;17.30;99.90
23335;DHT22;11839;48.598;8.870;2023-07-31T04:05:10;17.20;99.90
23335;DHT22;11839;48.598;8.870;2023-07-31T04:07:37;17.30;99.90
23335;DHT22;11839;48.598;8.870;2023-07-31T04:10:04;17.40;99.90
23335;DHT22;11839;48.598;8.870;2023-07-31T04:12:31;17.40;99.90
23335;DHT22;11839;48.598;8.870;2023-07-31T04:14:58;17.60;99.90
23335;DHT22;11839;48.598;8.870;2023-07-31T04:17:25;17.70;99.90
23335;DHT22;11839;48.598;8.870;2023-07-31T04:19:53;17.80;99.90
23335;DHT22;11839;48.598;8.870;2023-07-31T04:22:19;17.80;99.90
23335;DHT22;11839;48.598;8.870;2023-07-31T04:24:46;18.00;99.90
23335;DHT22;11839;48.598;8.870;2023-07-31T04:27:13;17.90;99.90
23335;DHT22;11839;48.598;8.870;2023-07-31T04:29:40;17.90;99.90
23335;DHT22;11839;48.598;8.870;2023-07-31T04:32:08;18.00;99.90
23335;DHT22;11839;48.598;8.870;2023-07-31T04:34:34;18.10;99.90
23335;DHT22;11839;48.598;8.870;2023-07-31T04:37:03;18.20;99.90
23335;DHT22;11839;48.598;8.870;2023-07-31T04:39:30;18.20;99.90
23335;DHT22;11839;48.598;8.870;2023-07-31T04:41:56;18.20;99.90
23335;DHT22;11839;48.598;8.870;2023-07-31T04:44:23;18.30;99.90
23335;DHT22;11839;48.598;8.870;2023-07-31T04:46:50;18.40;99.90
23335;DHT22;11839;48.598;8.870;2023-07-31T04:49:17;18.40;99.90
23335;DHT22;11839;48.598;8.870;2023-07-31T04:51:44;18.60;99.90
23335;DHT22;11839;48.598;8.870;2023-07-31T04:54:12;18.60;99.90
23335;DHT22;11839;48.598;8.870;2023-07-31T04:56:40;18.40;99.90
23335;DHT22;11839;48.598;8.870;2023-07-31T04:59:07;18.50;99.90
23335;DHT22;11839;48.598;8.870;2023-07-31T05:01:34;18.20;99.90
23335;DHT22;11839;48.598;8.870;2023-07-31T05:04:01;18.20;99.90
23335;DHT22;11839;48.598;8.870;2023-07-31T05:06:27;18.00;99.90
23335;DHT22;11839;48.598;8.870;2023-07-31T05:08:54;18.10;99.90
23335;DHT22;11839;48.598;8.870;2023-07-31T05:11:22;18.00;99.90
23335;DHT22;11839;48.598;8.870;2023-07-31T05:13:49;18.00;99.90
23335;DHT22;11839;48.598;8.870;2023-07-31T05:16:16;17.90;99.90
23335;DHT22;11839;48.598;8.870;2023-07-31T05:18:42;18.00;99.90
23335;DHT22;11839;48.598;8.870;2023-07-31T05:21:09;18.20;99.90
23335;DHT22;11839;48.598;8.870;2023-07-31T05:23:36;18.30;99.90
23335;DHT22;11839;48.598;8.870;2023-07-31T05:26:04;18.60;99.90
23335;DHT22;11839;48.598;8.870;2023-07-31T05:28:33;18.60;99.90
23335;DHT22;11839;48.598;8.870;2023-07-31T05:31:00;18.70;99.90
23335;DHT22;11839;48.598;8.870;2023-07-31T05:33:27;18.80;99.90
23335;DHT22;11839;48.598;8.870;2023-07-31T05:35:54;18.70;99.90
23335;DHT22;11839;48.598;8.870;2023-07-31T05:38:20;18.60;99.90
23335;DHT22;11839;48.598;8.870;2023-07-31T05:40:47;18.60;99.90
23335;DHT22;11839;48.598;8.870;2023-07-31T05:43:14;18.60;99.90
23335;DHT22;11839;48.598;8.870;2023-07-31T05:45:43;18.50;99.90
23335;DHT22;11839;48.598;8.870;2023-07-31T05:48:10;18.20;99.90
23335;DHT22;11839;48.598;8.870;2023-07-31T05:50:36;18.30;99.90
23335;DHT22;11839;48.598;8.870;2023-07-31T05:53:04;18.20;99.90
23335;DHT22;11839;48.598;8.870;2023-07-31T05:55:31;18.20;99.90
23335;DHT22;11839;48.598;8.870;2023-07-31T05:57:58;18.10;99.90
23335;DHT22;11839;48.598;8.870;2023-07-31T06:00:24;18.30;99.90
23335;DHT22;11839;48.598;8.870;2023-07-31T06:02:53;18.30;99.90
23335;DHT22;11839;48.598;8.870;2023-07-31T06:05:20;18.10;99.90
23335;DHT22;11839;48.598;8.870;2023-07-31T06:07:47;18.20;99.90
23335;DHT22;11839;48.598;8.870;2023-07-31T06:10:13;18.60;99.90
23335;DHT22;11839;48.598;8.870;2023-07-31T06:12:40;18.70;99.90
23335;DHT22;11839;48.598;8.870;2023-07-31T06:15:07;18.70;99.90
23335;DHT22;11839;48.598;8.870;2023-07-31T06:17:34;18.80;99.90
23335;DHT22;11839;48.598;8.870;2023-07-31T06:20:03;18.90;99.90
23335;DHT22;11839;48.598;8.870;2023-07-31T06:22:30;19.30;99.90
23335;DHT22;11839;48.598;8.870;2023-07-31T06:24:57;19.70;99.90
23335;DHT22;11839;48.598;8.870;2023-07-31T06:27:24;19.90;99.90
23335;DHT22;11839;48.598;8.870;2023-07-31T06:29:51;19.70;99.90
23335;DHT22;11839;48.598;8.870;2023-07-31T06:32:17;20.00;99.90
23335;DHT22;11839;48.598;8.870;2023-07-31T06:34:44;20.20;99.90
23335;DHT22;11839;48.598;8.870;2023-07-31T06:37:12;20.40;99.90
23335;DHT22;11839;48.598;8.870;2023-07-31T06:39:39;20.10;99.90
23335;DHT22;11839;48.598;8.870;2023-07-31T06:42:06;20.30;99.90
23335;DHT22;11839;48.598;8.870;2023-07-31T06:44:33;20.40;99.90
23335;DHT22;11839;48.598;8.870;2023-07-31T06:46:59;20.30;99.90
23335;DHT22;11839;48.598;8.870;2023-07-31T06:49:26;20.20;99.90
23335;DHT22;11839;48.598;8.870;2023-07-31T06:51:53;20.20;99.90
23335;DHT22;11839;48.598;8.870;2023-07-31T06:54:21;20.40;99.90
23335;DHT22;11839;48.598;8.870;2023-07-31T06:56:48;20.30;99.90
23335;DHT22;11839;48.598;8.870;2023-07-31T06:59:14;20.50;99.90
23335;DHT22;11839;48.598;8.870;2023-07-31T07:01:41;20.60;99.90
23335;DHT22;11839;48.598;8.870;2023-07-31T07:04:08;20.40;99.90
23335;DHT22;11839;48.598;8.870;2023-07-31T07:06:35;20.50;99.90
23335;DHT22;11839;48.598;8.870;2023-07-31T07:09:02;20.60;99.90
23335;DHT22;11839;48.598;8.870;2023-07-31T07:11:32;20.60;99.90
23335;DHT22;11839;48.598;8.870;2023-07-31T07:13:59;20.70;99.90
23335;DHT22;11839;48.598;8.870;2023-07-31T07:16:29;20.70;99.90
23335;DHT22;11839;48.598;8.870;2023-07-31T07:18:56;21.10;99.90
23335;DHT22;11839;48.598;8.870;2023-07-31T07:21:21;21.40;99.90
23335;DHT22;11839;48.598;8.870;2023-07-31T07:23:48;21.50;99.90
23335;DHT22;11839;48.598;8.870;2023-07-31T07:26:15;21.30;99.90
23335;DHT22;11839;48.598;8.870;2023-07-31T07:28:43;21.10;99.90
23335;DHT22;11839;48.598;8.870;2023-07-31T07:31:11;20.80;99.90
23335;DHT22;11839;48.598;8.870;2023-07-31T07:33:38;20.80;99.90
23335;DHT22;11839;48.598;8.870;2023-07-31T07:36:05;21.00;99.90
23335;DHT22;11839;48.598;8.870;2023-07-31T07:38:35;21.00;99.90
23335;DHT22;11839;48.598;8.870;2023-07-31T07:41:02;20.90;99.90
23335;DHT22;11839;48.598;8.870;2023-07-31T07:43:28;20.70;99.90
23335;DHT22;11839;48.598;8.870;2023-07-31T07:45:57;20.50;99.90
23335;DHT22;11839;48.598;8.870;2023-07-31T07:48:23;20.80;99.90
23335;DHT22;11839;48.598;8.870;2023-07-31T07:50:53;20.80;99.90
23335;DHT22;11839;48.598;8.870;2023-07-31T07:53:20;21.00;99.90
23335;DHT22;11839;48.598;8.870;2023-07-31T07:55:47;21.10;99.90
23335;DHT22;11839;48.598;8.870;2023-07-31T07:58:13;21.30;99.90
23335;DHT22;11839;48.598;8.870;2023-07-31T08:00:40;21.30;99.90
23335;DHT22;11839;48.598;8.870;2023-07-31T08:03:08;21.50;99.90
23335;DHT22;11839;48.598;8.870;2023-07-31T08:05:35;22.00;99.90
23335;DHT22;11839;48.598;8.870;2023-07-31T08:08:02;21.90;99.90
23335;DHT22;11839;48.598;8.870;2023-07-31T08:10:28;22.10;99.90
23335;DHT22;11839;48.598;8.870;2023-07-31T08:12:55;22.40;99.90
23335;DHT22;11839;48.598;8.870;2023-07-31T08:15:22;22.70;99.90
23335;DHT22;11839;48.598;8.870;2023-07-31T08:17:49;23.30;99.90
23335;DHT22;11839;48.598;8.870;2023-07-31T08:20:17;23.50;99.90
23335;DHT22;11839;48.598;8.870;2023-07-31T08:22:44;23.80;99.90
23335;DHT22;11839;48.598;8.870;2023-07-31T08:25:11;23.80;99.90
23335;DHT22;11839;48.598;8.870;2023-07-31T08:27:38;23.80;99.90
23335;DHT22;11839;48.598;8.870;2023-07-31T08:30:08;23.70;99.90
23335;DHT22;11839;48.598;8.870;2023-07-31T08:32:35;23.50;99.90
23335;DHT22;11839;48.598;8.870;2023-07-31T08:35:02;23.20;99.90
23335;DHT22;11839;48.598;8.870;2023-07-31T08:37:31;23.50;99.90
23335;DHT22;11839;48.598;8.870;2023-07-31T08:39:57;23.70;99.90
23335;DHT22;11839;48.598;8.870;2023-07-31T08:42:24;23.80;99.90
23335;DHT22;11839;48.598;8.870;2023-07-31T08:44:52;24.10;99.90
23335;DHT22;11839;48.598;8.870;2023-07-31T08:47:20;24.00;99.90
23335;DHT22;11839;48.598;8.870;2023-07-31T08:49:48;24.10;99.90
23335;DHT22;11839;48.598;8.870;2023-07-31T08:52:15;24.00;99.90
23335;DHT22;11839;48.598;8.870;2023-07-31T08:54:44;23.60;99.90
23335;DHT22;11839;48.598;8.870;2023-07-31T08:57:11;23.50;99.90
23335;DHT22;11839;48.598;8.870;2023-07-31T08:59:39;23.60;99.90
23335;DHT22;11839;48.598;8.870;2023-07-31T09:02:08;23.90;99.90
23335;DHT22;11839;48.598;8.870;2023-07-31T09:04:35;23.90;99.90
23335;DHT22;11839;48.598;8.870;2023-07-31T09:07:03;24.10;99.90
23335;DHT22;11839;48.598;8.870;2023-07-31T09:09:31;24.20;99.90
23335;DHT22;11839;48.598;8.870;2023-07-31T09:11:59;24.30;99.90
23335;DHT22;11839;48.598;8.870;2023-07-31T09:14:27;24.40;99.90
23335;DHT22;11839;48.598;8.870;2023-07-31T09:16:55;24.30;99.90
23335;DHT22;11839;48.598;8.870;2023-07-31T09:19:26;24.10;99.90
23335;DHT22;11839;48.598;8.870;2023-07-31T09:21:53;23.70;99.90
23335;DHT22;11839;48.598;8.870;2023-07-31T09:24:27;23.60;99.90
23335;DHT22;11839;48.598;8.870;2023-07-31T09:26:54;23.60;99.90
23335;DHT22;11839;48.598;8.870;2023-07-31T09:29:23;23.30;99.90
23335;DHT22;11839;48.598;8.870;2023-07-31T09:31:50;23.30;99.90
23335;DHT22;11839;48.598;8.870;2023-07-31T09:34:17;23.50;99.90
23335;DHT22;11839;48.598;8.870;2023-07-31T09:36:45;23.40;99.90
23335;DHT22;11839;48.598;8.870;2023-07-31T09:39:13;23.50;99.90
23335;DHT22;11839;48.598;8.870;2023-07-31T09:41:42;23.60;99.90
23335;DHT22;11839;48.598;8.870;2023-07-31T09:44:10;23.60;99.90
23335;DHT22;11839;48.598;8.870;2023-07-31T09:46:38;23.90;99.90
23335;DHT22;11839;48.598;8.870;2023-07-31T09:49:06;23.60;99.90
23335;DHT22;11839;48.598;8.870;2023-07-31T09:51:34;23.60;99.90
23335;DHT22;11839;48.598;8.870;2023-07-31T09:54:08;23.80;99.80
23335;DHT22;11839;48.598;8.870;2023-07-31T09:56:36;24.10;99.20
23335;DHT22;11839;48.598;8.870;2023-07-31T09:59:05;24.40;99.20
23335;DHT22;11839;48.598;8.870;2023-07-31T10:01:32;24.70;98.90
23335;DHT22;11839;48.598;8.870;2023-07-31T10:04:01;24.60;99.00
23335;DHT22;11839;48.598;8.870;2023-07-31T10:06:28;24.70;98.10
23335;DHT22;11839;48.598;8.870;2023-07-31T10:08:56;25.00;97.90
23335;DHT22;11839;48.598;8.870;2023-07-31T10:11:25;25.30;98.10
23335;DHT22;11839;48.598;8.870;2023-07-31T10:13:54;25.20;98.10
23335;DHT22;11839;48.598;8.870;2023-07-31T10:16:21;25.10;97.50
23335;DHT22;11839;48.598;8.870;2023-07-31T10:18:49;25.20;97.20
23335;DHT22;11839;48.598;8.870;2023-07-31T10:21:18;25.30;96.90
23335;DHT22;11839;48.598;8.870;2023-07-31T10:23:46;25.30;96.60
23335;DHT22;11839;48.598;8.870;2023-07-31T10:26:17;25.50;96.30
23335;DHT22;11839;48.598;8.870;2023-07-31T10:28:47;25.50;96.30
23335;DHT22;11839;48.598;8.870;2023-07-31T10:31:14;25.80;96.40
23335;DHT22;11839;48.598;8.870;2023-07-31T10:33:42;25.70;96.40
23335;DHT22;11839;48.598;8.870;2023-07-31T10:36:12;25.60;96.70
23335;DHT22;11839;48.598;8.870;2023-07-31T10:38:41;25.50;96.70
23335;DHT22;11839;48.598;8.870;2023-07-31T10:41:08;25.30;97.10
23335;DHT22;11839;48.598;8.870;2023-07-31T10:43:36;25.50;96.90
23335;DHT22;11839;48.598;8.870;2023-07-31T10:46:06;25.60;96.30
23335;DHT22;11839;48.598;8.870;2023-07-31T10:48:34;25.70;96.70
23335;DHT22;11839;48.598;8.870;2023-07-31T10:51:07;25.60;96.30
23335;DHT22;11839;48.598;8.870;2023-07-31T10:53:35;25.90;96.00
23335;DHT22;11839;48.598;8.870;2023-07-31T10:56:05;25.70;95.80
23335;DHT22;11839;48.598;8.870;2023-07-31T10:58:32;25.50;96.00
23335;DHT22;11839;48.598;8.870;2023-07-31T11:01:01;25.80;96.70
23335;DHT22;11839;48.598;8.870;2023-07-31T11:03:41;26.30;95.30
23335;DHT22;11839;48.598;8.870;2023-07-31T11:06:08;25.90;95.90
23335;DHT22;11839;48.598;8.870;2023-07-31T11:08:41;25.90;96.40
23335;DHT22;11839;48.598;8.870;2023-07-31T11:11:11;25.80;96.00
23335;DHT22;11839;48.598;8.870;2023-07-31T11:13:42;25.40;96.30
23335;DHT22;11839;48.598;8.870;2023-07-31T11:16:10;25.10;96.50
23335;DHT22;11839;48.598;8.870;2023-07-31T11:18:39;24.80;96.80
23335;DHT22;11839;48.598;8.870;2023-07-31T11:21:07;24.80;97.00
23335;DHT22;11839;48.598;8.870;2023-07-31T11:23:36;24.80;97.00
23335;DHT22;11839;48.598;8.870;2023-07-31T11:26:05;24.90;97.40
23335;DHT22;11839;48.598;8.870;2023-07-31T11:28:34;25.10;97.20
23335;DHT22;11839;48.598;8.870;2023-07-31T11:31:02;24.80;97.40
23335;DHT22;11839;48.598;8.870;2023-07-31T11:33:29;25.00;97.60
23335;DHT22;11839;48.598;8.870;2023-07-31T11:35:56;25.10;97.50
23335;DHT22;11839;48.598;8.870;2023-07-31T11:38:23;24.90;97.30
23335;DHT22;11839;48.598;8.870;2023-07-31T11:40:50;25.00;97.20
23335;DHT22;11839;48.598;8.870;2023-07-31T11:43:18;25.10;97.10
23335;DHT22;11839;48.598;8.870;2023-07-31T11:45:50;24.90;97.20
23335;DHT22;11839;48.598;8.870;2023-07-31T11:48:21;24.90;97.10
23335;DHT22;11839;48.598;8.870;2023-07-31T11:50:50;25.00;97.30
23335;DHT22;11839;48.598;8.870;2023-07-31T11:53:20;25.00;97.00
23335;DHT22;11839;48.598;8.870;2023-07-31T11:55:48;24.90;97.60
23335;DHT22;11839;48.598;8.870;2023-07-31T11:58:16;24.60;98.10
23335;DHT22;11839;48.598;8.870;2023-07-31T12:00:44;24.40;99.70
23335;DHT22;11839;48.598;8.870;2023-07-31T12:03:12;24.30;99.90
23335;DHT22;11839;48.598;8.870;2023-07-31T12:05:39;24.40;99.90
23335;DHT22;11839;48.598;8.870;2023-07-31T12:08:10;24.50;99.90
23335;DHT22;11839;48.598;8.870;2023-07-31T12:10:38;24.30;99.90
23335;DHT22;11839;48.598;8.870;2023-07-31T12:13:09;24.40;99.90
23335;DHT22;11839;48.598;8.870;2023-07-31T12:15:40;24.60;99.90
23335;DHT22;11839;48.598;8.870;2023-07-31T12:18:08;24.60;99.90
23335;DHT22;11839;48.598;8.870;2023-07-31T12:20:43;24.90;99.90
23335;DHT22;11839;48.598;8.870;2023-07-31T12:23:15;25.20;99.70
23335;DHT22;11839;48.598;8.870;2023-07-31T12:25:43;25.50;99.20
23335;DHT22;11839;48.598;8.870;2023-07-31T12:28:10;25.70;99.30
23335;DHT22;11839;48.598;8.870;2023-07-31T12:30:38;26.40;98.70
23335;DHT22;11839;48.598;8.870;2023-07-31T12:33:06;26.80;97.60
23335;DHT22;11839;48.598;8.870;2023-07-31T12:35:38;27.00;97.50
23335;DHT22;11839;48.598;8.870;2023-07-31T12:38:08;27.40;96.70
23335;DHT22;11839;48.598;8.870;2023-07-31T12:40:37;27.40;97.00
23335;DHT22;11839;48.598;8.870;2023-07-31T12:43:04;27.40;96.00
23335;DHT22;11839;48.598;8.870;2023-07-31T12:45:31;27.80;95.20
23335;DHT22;11839;48.598;8.870;2023-07-31T12:47:58;27.90;95.30
23335;DHT22;11839;48.598;8.870;2023-07-31T12:50:25;27.70;94.80
23335;DHT22;11839;48.598;8.870;2023-07-31T12:52:53;27.40;95.50
23335;DHT22;11839;48.598;8.870;2023-07-31T12:55:22;27.20;95.40
23335;DHT22;11839;48.598;8.870;2023-07-31T12:57:49;27.00;95.90
23335;DHT22;11839;48.598;8.870;2023-07-31T13:00:16;27.00;95.80
23335;DHT22;11839;48.598;8.870;2023-07-31T13:02:43;27.00;96.00
23335;DHT22;11839;48.598;8.870;2023-07-31T13:05:10;27.30;95.00
23335;DHT22;11839;48.598;8.870;2023-07-31T13:07:38;26.80;95.60
23335;DHT22;11839;48.598;8.870;2023-07-31T13:10:06;26.60;95.80
23335;DHT22;11839;48.598;8.870;2023-07-31T13:12:34;26.60;96.20
23335;DHT22;11839;48.598;8.870;2023-07-31T13:15:01;26.30;96.60
23335;DHT22;11839;48.598;8.870;2023-07-31T13:17:28;26.00;96.50
23335;DHT22;11839;48.598;8.870;2023-07-31T13:19:55;25.90;97.90
23335;DHT22;11839;48.598;8.870;2023-07-31T13:22:21;26.20;97.20
23335;DHT22;11839;48.598;8.870;2023-07-31T13:24:48;26.20;96.60
23335;DHT22;11839;48.598;8.870;2023-07-31T13:27:15;26.00;96.40
23335;DHT22;11839;48.598;8.870;2023-07-31T13:29:45;26.20;96.10
23335;DHT22;11839;48.598;8.870;2023-07-31T13:32:12;26.30;95.30
23335;DHT22;11839;48.598;8.870;2023-07-31T13:34:39;26.30;94.90
23335;DHT22;11839;48.598;8.870;2023-07-31T13:37:06;26.20;95.20
23335;DHT22;11839;48.598;8.870;2023-07-31T13:39:32;25.90;95.00
23335;DHT22;11839;48.598;8.870;2023-07-31T13:41:59;25.90;95.30
23335;DHT22;11839;48.598;8.870;2023-07-31T13:44:26;25.80;95.30
23335;DHT22;11839;48.598;8.870;2023-07-31T13:46:54;25.90;95.20
23335;DHT22;11839;48.598;8.870;2023-07-31T13:49:21;25.70;95.40
23335;DHT22;11839;48.598;8.870;2023-07-31T13:51:48;25.90;95.00
23335;DHT22;11839;48.598;8.870;2023-07-31T13:54:14;26.00;95.00
23335;DHT22;11839;48.598;8.870;2023-07-31T13:56:42;25.70;94.50
23335;DHT22;11839;48.598;8.870;2023-07-31T13:59:09;25.60;95.00
23335;DHT22;11839;48.598;8.870;2023-07-31T14:01:35;25.50;94.70
23335;DHT22;11839;48.598;8.870;2023-07-31T14:04:04;25.50;94.90
23335;DHT22;11839;48.598;8.870;2023-07-31T14:06:30;25.70;95.00
23335;DHT22;11839;48.598;8.870;2023-07-31T14:08:57;25.60;95.20
23335;DHT22;11839;48.598;8.870;2023-07-31T14:11:24;25.40;94.60
23335;DHT22;11839;48.598;8.870;2023-07-31T14:13:51;25.50;95.00
23335;DHT22;11839;48.598;8.870;2023-07-31T14:16:18;25.90;94.70
23335;DHT22;11839;48.598;8.870;2023-07-31T14:18:44;26.00;94.00
23335;DHT22;11839;48.598;8.870;2023-07-31T14:21:13;26.20;93.60
23335;DHT22;11839;48.598;8.870;2023-07-31T14:23:40;26.30;93.60
23335;DHT22;11839;48.598;8.870;2023-07-31T14:26:07;26.20;93.60
23335;DHT22;11839;48.598;8.870;2023-07-31T14:28:33;26.20;94.10
23335;DHT22;11839;48.598;8.870;2023-07-31T14:31:00;25.80;93.80
23335;DHT22;11839;48.598;8.870;2023-07-31T14:33:27;25.90;94.10
23335;DHT22;11839;48.598;8.870;2023-07-31T14:35:54;26.40;94.20
23335;DHT22;11839;48.598;8.870;2023-07-31T14:38:22;27.00;93.90
23335;DHT22;11839;48.598;8.870;2023-07-31T14:40:48;27.30;93.00
23335;DHT22;11839;48.598;8.870;2023-07-31T14:43:15;27.40;92.90
23335;DHT22;11839;48.598;8.870;2023-07-31T14:45:42;27.70;93.10
23335;DHT22;11839;48.598;8.870;2023-07-31T14:48:09;27.80;92.80
23335;DHT22;11839;48.598;8.870;2023-07-31T14:50:36;27.70;92.20
23335;DHT22;11839;48.598;8.870;2023-07-31T14:53:03;27.60;92.80
23335;DHT22;11839;48.598;8.870;2023-07-31T14:55:31;27.80;92.70
23335;DHT22;11839;48.598;8.870;2023-07-31T14:57:57;27.60;93.00
23335;DHT22;11839;48.598;8.870;2023-07-31T15:00:24;27.60;93.30
23335;DHT22;11839;48.598;8.870;2023-07-31T15:02:52;27.60;93.30
23335;DHT22;11839;48.598;8.870;2023-07-31T15:05:18;27.40;92.90
23335;DHT22;11839;48.598;8.870;2023-07-31T15:07:45;27.40;93.00
23335;DHT22;11839;48.598;8.870;2023-07-31T15:10:12;27.00;93.20
23335;DHT22;11839;48.598;8.870;2023-07-31T15:12:42;26.60;93.30
23335;DHT22;11839;48.598;8.870;2023-07-31T15:15:09;26.50;93.70
23335;DHT22;11839;48.598;8.870;2023-07-31T15:17:36;26.30;93.40
23335;DHT22;11839;48.598;8.870;2023-07-31T15:20:03;26.40;93.30
23335;DHT22;11839;48.598;8.870;2023-07-31T15:22:31;26.30;93.20
23335;DHT22;11839;48.598;8.870;2023-07-31T15:24:58;26.30;93.20
23335;DHT22;11839;48.598;8.870;2023-07-31T15:27:25;26.40;93.60
23335;DHT22;11839;48.598;8.870;2023-07-31T15:29:53;26.60;93.10
23335;DHT22;11839;48.598;8.870;2023-07-31T15:32:20;26.50;93.20